createdAt,value
2019-02-11T00:02:18.622Z,0.70
2019-02-11T00:04:48.965Z,0.60
2019-02-11T00:07:19.584Z,0.62
2019-02-11T00:09:50.102Z,0.70
2019-02-11T00:12:20.931Z,0.60
2019-02-11T00:14:51.554Z,0.85
2019-02-11T00:17:21.916Z,0.70
2019-02-11T00:19:52.581Z,0.50
2019-02-11T00:22:23.181Z,0.60
2019-02-11T00:24:53.541Z,0.60
2019-02-11T00:27:23.879Z,1.10
2019-02-11T00:29:54.239Z,0.60
2019-02-11T00:32:25.108Z,0.70
2019-02-11T00:34:55.767Z,0.80
2019-02-11T00:37:26.365Z,0.70
2019-02-11T00:39:57.030Z,0.70
2019-02-11T00:42:27.617Z,1.42
2019-02-11T00:44:57.976Z,0.70
2019-02-11T00:47:28.626Z,1.40
2019-02-11T00:49:59.198Z,0.70
2019-02-11T00:52:29.584Z,0.70
2019-02-11T00:54:59.886Z,1.67
2019-02-11T00:57:30.800Z,0.75
2019-02-11T01:00:01.138Z,0.70
2019-02-11T01:02:32.031Z,0.70
2019-02-11T01:05:02.422Z,0.70
2019-02-11T01:07:33.050Z,0.82
2019-02-11T01:10:03.627Z,0.70
2019-02-11T01:12:34.487Z,0.57
2019-02-11T01:15:08.642Z,0.60
2019-02-11T01:17:38.967Z,0.70
2019-02-11T01:20:11.897Z,0.65
2019-02-11T01:22:42.601Z,0.62
2019-02-11T01:25:12.920Z,0.60
2019-02-11T01:27:43.541Z,0.70
2019-02-11T01:30:14.143Z,0.50
2019-02-11T01:32:44.461Z,0.70
2019-02-11T01:35:15.348Z,0.50
2019-02-11T01:37:45.946Z,0.50
2019-02-11T01:40:16.282Z,0.40
2019-02-11T01:42:46.658Z,0.50
2019-02-11T01:45:17.213Z,0.98
2019-02-11T01:47:48.082Z,0.50
2019-02-11T01:50:18.445Z,0.70
2019-02-11T01:52:49.045Z,0.50
2019-02-11T01:55:19.435Z,0.42
2019-02-11T01:57:50.095Z,0.50
2019-02-11T02:00:20.966Z,0.40
2019-02-11T02:02:51.328Z,0.40
2019-02-11T02:05:21.669Z,0.40
2019-02-11T02:07:51.993Z,0.50
2019-02-11T02:10:22.352Z,0.50
2019-02-11T02:12:53.014Z,0.42
2019-02-11T02:15:23.325Z,0.40
2019-02-11T02:17:53.667Z,0.40
2019-02-11T02:20:24.029Z,0.50
2019-02-11T02:22:54.377Z,0.47
2019-02-11T02:25:24.683Z,0.50
2019-02-11T02:27:55.313Z,0.40
2019-02-11T02:30:25.721Z,0.47
2019-02-11T02:32:56.337Z,0.40
2019-02-11T02:35:26.644Z,0.50
2019-02-11T02:37:57.307Z,0.50
2019-02-11T02:40:27.974Z,0.40
2019-02-11T02:42:58.337Z,0.40
2019-02-11T02:45:28.662Z,0.50
2019-02-11T02:47:59.259Z,0.40
2019-02-11T02:50:29.616Z,0.40
2019-02-11T02:53:00.198Z,1.77
2019-02-11T02:55:30.831Z,0.50
2019-02-11T02:58:01.142Z,0.65
2019-02-11T03:00:31.793Z,1.00
2019-02-11T03:03:02.135Z,9.08
2019-02-11T03:05:32.713Z,13.55
2019-02-11T03:08:03.324Z,2.30
2019-02-11T03:10:34.523Z,4.35
2019-02-11T03:13:05.289Z,8.58
2019-02-11T03:15:35.869Z,4.95
2019-02-11T03:18:06.499Z,3.35
2019-02-11T03:20:37.105Z,12.33
2019-02-11T03:23:07.447Z,13.15
2019-02-11T03:25:37.823Z,8.03
2019-02-11T03:28:08.426Z,6.25
2019-02-11T03:30:39.046Z,2.47
2019-02-11T03:33:09.682Z,1.15
2019-02-11T03:35:39.990Z,2.87
2019-02-11T03:38:10.576Z,0.60
2019-02-11T03:40:40.927Z,1.57
2019-02-11T03:43:11.582Z,6.92
2019-02-11T03:45:42.099Z,7.33
2019-02-11T03:48:12.408Z,11.63
2019-02-11T03:50:43.022Z,13.62
2019-02-11T03:53:13.367Z,21.68
2019-02-11T03:55:43.733Z,5.45
2019-02-11T03:58:14.385Z,10.05
2019-02-11T04:00:44.754Z,14.68
2019-02-11T04:03:15.390Z,6.42
2019-02-11T04:05:45.724Z,18.73
2019-02-11T04:08:16.432Z,22.35
2019-02-11T04:10:47.055Z,12.40
2019-02-11T04:13:17.592Z,11.30
2019-02-11T04:15:48.191Z,9.95
2019-02-11T04:18:18.919Z,22.00
2019-02-11T04:20:49.294Z,10.58
2019-02-11T04:23:19.908Z,17.30
2019-02-11T04:25:50.545Z,10.03
2019-02-11T04:28:21.165Z,13.90
2019-02-11T04:30:51.765Z,16.23
2019-02-11T04:33:22.136Z,19.48
2019-02-11T04:35:52.449Z,13.25
2019-02-11T04:38:23.067Z,18.82
2019-02-11T04:40:53.415Z,10.78
2019-02-11T04:43:23.783Z,19.12
2019-02-11T04:45:54.157Z,7.70
2019-02-11T04:48:24.477Z,12.85
2019-02-11T04:50:55.282Z,24.30
2019-02-11T04:53:25.861Z,18.10
2019-02-11T04:55:56.508Z,23.52
2019-02-11T04:58:27.170Z,11.70
2019-02-11T05:00:57.496Z,5.95
2019-02-11T05:03:27.808Z,17.92
2019-02-11T05:05:58.432Z,19.70
2019-02-11T05:08:29.368Z,27.05
2019-02-11T05:11:00.029Z,16.40
2019-02-11T05:13:30.342Z,22.37
2019-02-11T05:16:00.974Z,22.93
2019-02-11T05:18:31.353Z,20.75
2019-02-11T05:21:01.765Z,19.70
2019-02-11T05:23:32.372Z,7.55
2019-02-11T05:26:02.966Z,18.15
2019-02-11T05:28:33.908Z,18.90
2019-02-11T05:31:04.251Z,26.97
2019-02-11T05:33:34.591Z,10.10
2019-02-11T05:36:04.999Z,8.53
2019-02-11T05:38:35.577Z,16.12
2019-02-11T05:41:06.648Z,25.90
2019-02-11T05:43:37.230Z,14.65
2019-02-11T05:46:07.867Z,17.87
2019-02-11T05:48:38.210Z,19.48
2019-02-11T05:51:09.156Z,8.68
2019-02-11T05:53:39.812Z,19.75
2019-02-11T05:56:10.396Z,28.75
2019-02-11T05:58:41.009Z,17.62
2019-02-11T06:01:11.347Z,15.78
2019-02-11T06:03:42.386Z,21.00
2019-02-11T06:06:12.796Z,22.62
2019-02-11T06:08:43.191Z,11.05
2019-02-11T06:11:13.532Z,15.95
2019-02-11T06:13:43.876Z,6.40
2019-02-11T06:16:14.379Z,5.40
2019-02-11T06:18:45.003Z,7.58
2019-02-11T06:21:15.647Z,5.35
2019-02-11T06:23:45.979Z,7.45
2019-02-11T06:26:16.396Z,10.13
2019-02-11T06:28:46.739Z,14.70
2019-02-11T06:31:17.154Z,12.47
2019-02-11T06:33:47.728Z,11.38
2019-02-11T06:36:18.357Z,13.62
2019-02-11T06:38:48.747Z,10.45
2019-02-11T06:41:19.748Z,11.00
2019-02-11T06:43:50.339Z,17.05
2019-02-11T06:46:21.051Z,10.58
2019-02-11T06:48:51.662Z,11.45
2019-02-11T06:51:22.928Z,7.67
2019-02-11T06:53:53.645Z,7.35
2019-02-11T06:56:24.275Z,5.55
2019-02-11T06:58:54.885Z,8.43
2019-02-11T07:01:25.221Z,7.60
2019-02-11T07:03:55.653Z,5.62
2019-02-11T07:06:26.703Z,6.75
2019-02-11T07:08:57.114Z,5.58
2019-02-11T07:11:28.135Z,5.42
2019-02-11T07:13:58.502Z,2.25
2019-02-11T07:16:29.078Z,6.25
2019-02-11T07:19:00.356Z,8.53
2019-02-11T07:21:30.833Z,4.12
2019-02-11T07:24:02.628Z,11.85
2019-02-11T07:26:33.025Z,5.70
2019-02-11T07:29:03.658Z,7.28
2019-02-11T07:31:33.991Z,10.28
2019-02-11T07:34:04.357Z,4.92
2019-02-11T07:36:34.695Z,4.40
2019-02-11T07:39:08.072Z,5.28
2019-02-11T07:41:45.841Z,5.08
2019-02-11T07:44:18.351Z,4.65
2019-02-11T07:46:48.955Z,9.85
2019-02-11T07:49:19.460Z,3.35
2019-02-11T07:51:50.190Z,10.68
2019-02-11T07:54:20.556Z,5.92
2019-02-11T07:56:51.447Z,10.78
2019-02-11T07:59:21.834Z,9.80
2019-02-11T08:01:52.432Z,14.50
2019-02-11T08:04:26.263Z,6.53
2019-02-11T08:06:55.039Z,13.88
2019-02-11T08:09:25.367Z,4.95
2019-02-11T08:11:55.998Z,4.60
2019-02-11T08:14:26.659Z,5.80
2019-02-11T08:16:56.997Z,1.20
2019-02-11T08:19:27.332Z,14.00
2019-02-11T08:21:58.628Z,7.05
2019-02-11T08:24:29.218Z,5.22
2019-02-11T08:26:59.841Z,2.60
2019-02-11T08:29:30.204Z,3.17
2019-02-11T08:32:00.607Z,4.03
2019-02-11T08:34:31.215Z,8.30
2019-02-11T08:37:01.844Z,4.75
2019-02-11T08:39:32.407Z,8.50
2019-02-11T08:42:03.110Z,4.90
2019-02-11T08:44:33.915Z,2.35
2019-02-11T08:47:04.514Z,2.12
2019-02-11T08:49:35.138Z,6.50
2019-02-11T08:52:05.482Z,5.92
2019-02-11T08:54:35.827Z,4.42
2019-02-11T08:57:06.541Z,2.37
2019-02-11T08:59:37.106Z,8.63
2019-02-11T09:02:07.428Z,5.75
2019-02-11T09:04:37.773Z,7.80
2019-02-11T09:07:08.181Z,10.75
2019-02-11T09:09:38.539Z,4.80
2019-02-11T09:12:09.147Z,15.08
2019-02-11T09:14:39.536Z,8.33
2019-02-11T09:17:10.626Z,5.45
2019-02-11T09:19:41.298Z,12.13
2019-02-11T09:22:11.632Z,13.58
2019-02-11T09:24:42.262Z,13.58
2019-02-11T09:27:12.869Z,10.93
2019-02-11T09:29:43.181Z,9.38
2019-02-11T09:32:13.732Z,7.22
2019-02-11T09:34:44.076Z,13.98
2019-02-11T09:37:14.580Z,10.03
2019-02-11T09:39:44.895Z,14.28
2019-02-11T09:42:15.260Z,19.62
2019-02-11T09:44:46.101Z,18.00
2019-02-11T09:47:16.476Z,15.15
2019-02-11T09:49:54.322Z,16.60
2019-02-11T09:52:24.984Z,12.85
2019-02-11T09:54:55.292Z,16.20
2019-02-11T09:57:26.773Z,11.83
2019-02-11T09:59:57.170Z,22.35
2019-02-11T10:02:27.512Z,11.50
2019-02-11T10:04:58.503Z,13.88
2019-02-11T10:07:29.119Z,13.60
2019-02-11T10:09:59.461Z,15.35
2019-02-11T10:12:30.473Z,13.72
2019-02-11T10:15:00.841Z,14.10
2019-02-11T10:17:31.172Z,10.85
2019-02-11T10:20:01.539Z,12.00
2019-02-11T10:22:31.884Z,11.03
2019-02-11T10:25:02.221Z,12.88
2019-02-11T10:27:32.597Z,15.35
2019-02-11T10:30:03.322Z,15.30
2019-02-11T10:32:34.301Z,7.47
2019-02-11T10:35:06.130Z,15.72
2019-02-11T10:37:36.463Z,9.28
2019-02-11T10:40:11.200Z,23.32
2019-02-11T10:42:41.941Z,12.30
2019-02-11T10:45:14.657Z,15.75
2019-02-11T10:47:49.323Z,16.95
2019-02-11T10:50:20.074Z,20.77
2019-02-11T10:52:50.716Z,15.75
2019-02-11T10:55:21.941Z,11.10
2019-02-11T10:57:52.236Z,8.33
2019-02-11T11:00:25.363Z,7.65
2019-02-11T11:02:55.984Z,9.78
2019-02-11T11:05:26.378Z,12.53
2019-02-11T11:07:56.711Z,11.08
2019-02-11T11:10:39.201Z,16.93
2019-02-11T11:13:09.538Z,11.00
2019-02-11T11:15:40.407Z,15.05
2019-02-11T11:18:11.008Z,15.35
2019-02-11T11:20:41.703Z,15.68
2019-02-11T11:23:12.276Z,18.15
2019-02-11T11:25:42.917Z,10.78
2019-02-11T11:28:13.291Z,19.02
2019-02-11T11:30:43.901Z,8.53
2019-02-11T11:33:14.538Z,17.92
2019-02-11T11:35:44.910Z,19.32
2019-02-11T11:38:15.497Z,11.15
2019-02-11T11:40:46.164Z,13.15
2019-02-11T11:43:16.485Z,7.03
2019-02-11T11:45:47.389Z,9.03
2019-02-11T11:48:17.998Z,20.02
2019-02-11T11:50:48.698Z,11.05
2019-02-11T11:53:19.363Z,8.80
2019-02-11T11:55:50.082Z,13.88
2019-02-11T11:58:20.423Z,13.62
2019-02-11T12:00:50.743Z,5.47
2019-02-11T12:03:21.381Z,7.87
2019-02-11T12:05:52.223Z,9.20
2019-02-11T12:08:22.820Z,10.55
2019-02-11T12:10:53.209Z,12.55
2019-02-11T12:13:23.957Z,5.87
2019-02-11T12:15:54.361Z,9.83
2019-02-11T12:18:24.741Z,8.68
2019-02-11T12:20:55.061Z,26.45
2019-02-11T12:23:25.411Z,11.18
2019-02-11T12:25:55.781Z,19.20
2019-02-11T12:28:26.403Z,6.30
2019-02-11T12:30:57.001Z,12.53
2019-02-11T12:33:27.382Z,11.80
2019-02-11T12:35:57.763Z,8.28
2019-02-11T12:38:28.340Z,12.55
2019-02-11T12:40:58.781Z,19.67
2019-02-11T12:43:29.160Z,14.20
2019-02-11T12:45:59.536Z,11.50
2019-02-11T12:48:29.868Z,11.50
2019-02-11T12:51:00.260Z,19.35
2019-02-11T12:53:30.570Z,13.10
2019-02-11T12:56:02.676Z,19.92
2019-02-11T12:58:32.980Z,12.35
2019-02-11T13:01:03.507Z,11.73
2019-02-11T13:03:33.891Z,15.90
2019-02-11T13:06:04.294Z,13.62
2019-02-11T13:08:35.965Z,15.58
2019-02-11T13:11:06.525Z,12.23
2019-02-11T13:13:36.908Z,4.35
2019-02-11T13:16:07.629Z,15.55
2019-02-11T13:18:39.286Z,7.45
2019-02-11T13:21:10.025Z,7.17
2019-02-11T13:23:40.759Z,9.78
2019-02-11T13:26:11.774Z,4.45
2019-02-11T13:28:42.103Z,10.72
2019-02-11T13:31:12.496Z,6.33
2019-02-11T13:33:43.182Z,8.25
2019-02-11T13:36:13.827Z,9.80
2019-02-11T13:38:44.181Z,6.78
2019-02-11T13:41:14.779Z,7.20
2019-02-11T13:43:50.410Z,6.50
2019-02-11T13:46:21.014Z,8.90
2019-02-11T13:48:51.350Z,6.78
2019-02-11T13:51:23.331Z,6.95
2019-02-11T13:53:53.653Z,4.95
2019-02-11T13:56:24.235Z,2.72
2019-02-11T13:58:54.913Z,8.20
2019-02-11T14:01:25.665Z,6.20
2019-02-11T14:03:56.064Z,8.45
2019-02-11T14:06:26.399Z,2.37
2019-02-11T14:08:56.716Z,7.75
2019-02-11T14:11:27.053Z,4.78
2019-02-11T14:14:02.360Z,4.72
2019-02-11T14:16:29.813Z,8.35
2019-02-11T14:19:00.147Z,5.62
2019-02-11T14:21:30.858Z,9.70
2019-02-11T14:24:01.234Z,12.70
2019-02-11T14:26:31.607Z,9.13
2019-02-11T14:29:02.247Z,6.97
2019-02-11T14:31:32.659Z,9.85
2019-02-11T14:34:02.989Z,18.62
2019-02-11T14:36:33.365Z,7.00
2019-02-11T14:39:04.843Z,9.73
2019-02-11T14:41:35.459Z,6.30
2019-02-11T14:44:05.820Z,1.80
2019-02-11T14:46:36.143Z,3.42
2019-02-11T14:49:06.638Z,5.17
2019-02-11T14:51:37.563Z,5.12
2019-02-11T14:54:08.174Z,6.10
2019-02-11T14:56:38.488Z,1.95
2019-02-11T14:59:08.889Z,5.05
2019-02-11T15:01:39.204Z,1.75
2019-02-11T15:04:09.813Z,0.82
2019-02-11T15:06:40.428Z,3.30
2019-02-11T15:09:10.765Z,0.50
2019-02-11T15:11:41.708Z,1.62
2019-02-11T15:14:12.632Z,0.50
2019-02-11T15:16:42.978Z,1.67
2019-02-11T15:19:13.385Z,2.27
2019-02-11T15:21:44.012Z,0.95
2019-02-11T15:24:14.353Z,1.05
2019-02-11T15:26:45.221Z,3.35
2019-02-11T15:29:15.616Z,2.77
2019-02-11T15:31:46.326Z,1.00
2019-02-11T15:34:16.644Z,2.75
2019-02-11T15:36:47.259Z,3.47
2019-02-11T15:39:17.601Z,2.40
2019-02-11T15:41:48.010Z,2.47
2019-02-11T15:44:18.665Z,9.10
2019-02-11T15:46:48.980Z,0.85
2019-02-11T15:49:19.327Z,0.75
2019-02-11T15:51:49.749Z,4.53
2019-02-11T15:54:20.708Z,4.37
2019-02-11T15:56:51.023Z,2.60
2019-02-11T15:59:21.668Z,0.85
2019-02-11T16:01:52.004Z,4.75
2019-02-11T16:04:22.346Z,0.95
2019-02-11T16:06:53.004Z,0.70
2019-02-11T16:09:23.948Z,0.75
2019-02-11T16:11:54.500Z,0.70
2019-02-11T16:14:24.985Z,0.75
2019-02-11T16:16:55.581Z,0.82
2019-02-11T16:19:26.462Z,0.60
2019-02-11T16:21:56.839Z,0.70
2019-02-11T16:24:27.546Z,0.93
2019-02-11T16:26:58.431Z,1.32
2019-02-11T16:29:28.883Z,2.50
2019-02-11T16:32:01.017Z,1.60
2019-02-11T16:34:31.386Z,1.12
2019-02-11T16:37:02.153Z,1.47
2019-02-11T16:39:32.470Z,3.47
2019-02-11T16:42:03.055Z,0.65
2019-02-11T16:44:33.447Z,3.62
2019-02-11T16:47:04.733Z,1.55
2019-02-11T16:49:35.301Z,1.25
2019-02-11T16:52:05.958Z,1.22
2019-02-11T16:54:36.772Z,1.72
2019-02-11T16:57:07.111Z,2.47
2019-02-11T16:59:37.838Z,4.83
2019-02-11T17:02:08.184Z,0.60
2019-02-11T17:04:38.504Z,2.33
2019-02-11T17:07:08.951Z,2.45
2019-02-11T17:09:39.403Z,1.50
2019-02-11T17:12:09.746Z,1.50
2019-02-11T17:14:40.153Z,1.00
2019-02-11T17:17:10.759Z,1.57
2019-02-11T17:19:41.109Z,1.75
2019-02-11T17:22:11.483Z,0.90
2019-02-11T17:24:42.950Z,1.15
2019-02-11T17:27:13.294Z,0.80
2019-02-11T17:29:43.963Z,2.77
2019-02-11T17:32:14.276Z,1.25
2019-02-11T17:34:44.594Z,0.95
2019-02-11T17:37:14.939Z,1.47
2019-02-11T17:39:45.813Z,0.98
2019-02-11T17:42:16.147Z,2.17
2019-02-11T17:44:46.650Z,5.60
2019-02-11T17:47:16.961Z,1.05
2019-02-11T17:49:47.600Z,0.72
2019-02-11T17:52:18.286Z,0.80
2019-02-11T17:54:48.877Z,1.40
2019-02-11T17:57:19.483Z,2.58
2019-02-11T17:59:50.121Z,0.75
2019-02-11T18:02:20.727Z,1.47
2019-02-11T18:04:51.068Z,2.33
2019-02-11T18:07:21.940Z,5.67
2019-02-11T18:09:52.522Z,0.75
2019-02-11T18:12:23.252Z,1.32
2019-02-11T18:14:54.245Z,1.00
2019-02-11T18:17:24.548Z,0.78
2019-02-11T18:19:55.163Z,1.47
2019-02-11T18:22:25.530Z,0.80
2019-02-11T18:24:55.836Z,1.25
2019-02-11T18:27:26.417Z,3.47
2019-02-11T18:29:56.778Z,6.28
2019-02-11T18:32:27.636Z,3.27
2019-02-11T18:34:57.953Z,3.42
2019-02-11T18:37:28.457Z,0.90
2019-02-11T18:39:59.048Z,1.77
2019-02-11T18:42:29.630Z,2.22
2019-02-11T18:45:00.398Z,3.90
2019-02-11T18:47:30.741Z,4.87
2019-02-11T18:50:01.356Z,9.18
2019-02-11T18:52:31.731Z,7.00
2019-02-11T18:55:02.044Z,1.90
2019-02-11T18:57:32.670Z,5.80
2019-02-11T19:00:03.120Z,2.05
2019-02-11T19:02:33.803Z,2.05
2019-02-11T19:05:04.815Z,1.85
2019-02-11T19:07:35.186Z,1.25
2019-02-11T19:10:10.202Z,11.80
2019-02-11T19:12:40.820Z,0.90
2019-02-11T19:15:14.640Z,1.10
2019-02-11T19:17:45.243Z,1.70
2019-02-11T19:20:19.966Z,2.05
2019-02-11T19:22:50.336Z,1.60
2019-02-11T19:25:20.650Z,2.15
2019-02-11T19:27:51.257Z,2.35
2019-02-11T19:30:27.286Z,2.50
2019-02-11T19:32:58.157Z,2.25
2019-02-11T19:35:28.739Z,1.70
2019-02-11T19:37:59.378Z,1.80
2019-02-11T19:40:30.035Z,1.40
2019-02-11T19:43:00.650Z,1.47
2019-02-11T19:45:30.996Z,1.75
2019-02-11T19:48:01.582Z,0.70
2019-02-11T19:50:32.165Z,3.15
2019-02-11T19:53:02.541Z,1.72
2019-02-11T19:55:32.903Z,1.30
2019-02-11T19:58:03.251Z,2.22
2019-02-11T20:00:33.869Z,3.60
2019-02-11T20:03:04.451Z,2.08
2019-02-11T20:05:35.059Z,4.72
2019-02-11T20:08:05.679Z,6.53
2019-02-11T20:10:36.022Z,1.00
2019-02-11T20:13:06.331Z,2.40
2019-02-11T20:15:36.971Z,2.22
2019-02-11T20:18:07.376Z,1.57
2019-02-11T20:20:37.990Z,2.95
2019-02-11T20:23:08.333Z,1.62
2019-02-11T20:25:38.906Z,10.25
2019-02-11T20:28:09.624Z,4.90
2019-02-11T20:30:39.941Z,2.17
2019-02-11T20:33:10.257Z,8.88
2019-02-11T20:35:40.980Z,4.83
2019-02-11T20:38:11.831Z,12.68
2019-02-11T20:40:42.171Z,5.40
2019-02-11T20:43:12.523Z,9.10
2019-02-11T20:45:42.837Z,2.98
2019-02-11T20:48:13.179Z,13.78
2019-02-11T20:50:43.630Z,16.37
2019-02-11T20:53:14.215Z,14.63
2019-02-11T20:55:44.849Z,8.33
2019-02-11T20:58:15.475Z,7.03
2019-02-11T21:00:46.063Z,12.15
2019-02-11T21:03:16.702Z,7.30
2019-02-11T21:05:47.317Z,28.50
2019-02-11T21:08:17.934Z,14.58
2019-02-11T21:10:48.562Z,6.97
2019-02-11T21:13:19.238Z,13.93
2019-02-11T21:15:50.177Z,8.75
2019-02-11T21:18:20.942Z,17.20
2019-02-11T21:20:51.878Z,13.65
2019-02-11T21:23:22.739Z,19.48
2019-02-11T21:25:53.717Z,11.90
2019-02-11T21:28:24.695Z,8.90
2019-02-11T21:30:56.260Z,19.70
2019-02-11T21:33:26.904Z,10.40
2019-02-11T21:35:57.352Z,16.20
2019-02-11T21:38:27.913Z,15.35
2019-02-11T21:40:58.265Z,16.37
2019-02-11T21:43:28.653Z,21.10
2019-02-11T21:45:58.977Z,13.43
2019-02-11T21:48:29.299Z,19.62
2019-02-11T21:50:59.688Z,10.25
2019-02-11T21:53:30.532Z,13.78
2019-02-11T21:56:01.309Z,16.27
2019-02-11T21:58:31.983Z,16.25
2019-02-11T22:01:02.813Z,20.17
2019-02-11T22:03:33.412Z,13.98
2019-02-11T22:06:03.868Z,14.58
2019-02-11T22:08:34.186Z,16.00
2019-02-11T22:11:04.902Z,15.78
2019-02-11T22:13:35.585Z,15.68
2019-02-11T22:16:05.930Z,17.37
2019-02-11T22:18:36.252Z,16.48
2019-02-11T22:21:06.982Z,8.10
2019-02-11T22:23:37.589Z,24.87
2019-02-11T22:26:07.945Z,6.58
2019-02-11T22:28:38.566Z,13.98
2019-02-11T22:31:09.184Z,11.55
2019-02-11T22:33:39.798Z,18.95
2019-02-11T22:36:10.159Z,14.40
2019-02-11T22:38:40.501Z,7.97
2019-02-11T22:41:11.345Z,17.10
2019-02-11T22:43:42.268Z,25.17
2019-02-11T22:46:12.887Z,8.23
2019-02-11T22:48:43.237Z,16.73
2019-02-11T22:51:14.118Z,9.93
2019-02-11T22:53:44.437Z,14.23
2019-02-11T22:56:15.052Z,19.42
2019-02-11T22:58:45.725Z,19.42
2019-02-11T23:01:16.079Z,13.85
2019-02-11T23:03:46.715Z,13.93
2019-02-11T23:06:17.389Z,17.00
2019-02-11T23:08:47.730Z,14.50
2019-02-11T23:11:18.329Z,11.88
2019-02-11T23:13:48.707Z,12.82
2019-02-11T23:16:19.052Z,14.40
2019-02-11T23:18:49.638Z,17.45
2019-02-11T23:21:20.367Z,9.70
2019-02-11T23:23:50.800Z,11.73
2019-02-11T23:26:21.387Z,17.02
2019-02-11T23:28:52.229Z,8.73
2019-02-11T23:31:22.816Z,16.55
2019-02-11T23:33:53.434Z,10.20
2019-02-11T23:36:23.903Z,16.85
2019-02-11T23:38:54.515Z,8.28
2019-02-11T23:41:25.111Z,11.35
2019-02-11T23:43:56.051Z,12.50
2019-02-11T23:46:26.392Z,11.05
2019-02-11T23:48:56.713Z,9.03
2019-02-11T23:51:27.097Z,7.47
2019-02-11T23:53:57.454Z,11.20
2019-02-11T23:56:28.068Z,7.95
2019-02-11T23:58:58.458Z,9.53
